sensor_id;sensor_type;location;lat;lon;timestamp;temperature;humidity
22923;DHT22;11627;51.322;22.816;2022-10-16T00:00:45;11.50;21.10
22923;DHT22;11627;51.322;22.816;2022-10-16T00:03:12;11.40;21.30
22923;DHT22;11627;51.322;22.816;2022-10-16T00:05:42;11.10;21.20
22923;DHT22;11627;51.322;22.816;2022-10-16T00:08:12;11.20;22.00
22923;DHT22;11627;51.322;22.816;2022-10-16T00:10:38;11.20;21.60
22923;DHT22;11627;51.322;22.816;2022-10-16T00:13:05;11.20;14.00
22923;DHT22;11627;51.322;22.816;2022-10-16T00:15:34;11.30;21.00
22923;DHT22;11627;51.322;22.816;2022-10-16T00:18:02;11.30;20.60
22923;DHT22;11627;51.322;22.816;2022-10-16T00:25:19;11.20;23.40
22923;DHT22;11627;51.322;22.816;2022-10-16T00:27:45;11.20;21.10
22923;DHT22;11627;51.322;22.816;2022-10-16T00:35:03;11.30;20.80
22923;DHT22;11627;51.322;22.816;2022-10-16T00:39:55;11.30;23.20
22923;DHT22;11627;51.322;22.816;2022-10-16T00:42:22;11.10;16.60
22923;DHT22;11627;51.322;22.816;2022-10-16T00:44:53;11.00;21.80
22923;DHT22;11627;51.322;22.816;2022-10-16T00:47:50;11.20;23.80
22923;DHT22;11627;51.322;22.816;2022-10-16T00:50:34;10.60;24.40
22923;DHT22;11627;51.322;22.816;2022-10-16T00:53:00;11.20;25.90
22923;DHT22;11627;51.322;22.816;2022-10-16T00:55:27;11.10;26.20
22923;DHT22;11627;51.322;22.816;2022-10-16T00:57:56;10.70;25.60
22923;DHT22;11627;51.322;22.816;2022-10-16T01:00:26;11.00;18.20
22923;DHT22;11627;51.322;22.816;2022-10-16T01:02:57;10.90;20.10
22923;DHT22;11627;51.322;22.816;2022-10-16T01:05:26;10.80;27.80
22923;DHT22;11627;51.322;22.816;2022-10-16T01:08:12;10.60;29.50
22923;DHT22;11627;51.322;22.816;2022-10-16T01:11:12;10.70;30.10
22923;DHT22;11627;51.322;22.816;2022-10-16T01:13:47;11.00;28.70
22923;DHT22;11627;51.322;22.816;2022-10-16T01:16:34;10.90;19.80
22923;DHT22;11627;51.322;22.816;2022-10-16T01:19:23;11.20;26.40
22923;DHT22;11627;51.322;22.816;2022-10-16T01:21:53;10.90;19.60
22923;DHT22;11627;51.322;22.816;2022-10-16T01:27:10;10.80;29.30
22923;DHT22;11627;51.322;22.816;2022-10-16T01:32:44;10.80;21.80
22923;DHT22;11627;51.322;22.816;2022-10-16T01:37:48;10.80;32.90
22923;DHT22;11627;51.322;22.816;2022-10-16T01:40:18;10.60;28.30
22923;DHT22;11627;51.322;22.816;2022-10-16T01:42:52;10.60;31.60
22923;DHT22;11627;51.322;22.816;2022-10-16T01:45:19;10.60;31.60
22923;DHT22;11627;51.322;22.816;2022-10-16T01:47:46;10.50;31.20
22923;DHT22;11627;51.322;22.816;2022-10-16T01:50:14;10.30;32.90
22923;DHT22;11627;51.322;22.816;2022-10-16T01:52:44;11.00;33.80
22923;DHT22;11627;51.322;22.816;2022-10-16T01:55:13;10.40;33.50
22923;DHT22;11627;51.322;22.816;2022-10-16T01:57:44;10.70;34.90
22923;DHT22;11627;51.322;22.816;2022-10-16T02:00:12;10.60;33.90
22923;DHT22;11627;51.322;22.816;2022-10-16T02:02:42;10.50;25.30
22923;DHT22;11627;51.322;22.816;2022-10-16T02:05:26;10.60;35.70
22923;DHT22;11627;51.322;22.816;2022-10-16T02:07:52;10.70;29.90
22923;DHT22;11627;51.322;22.816;2022-10-16T02:10:19;10.20;28.10
22923;DHT22;11627;51.322;22.816;2022-10-16T02:12:50;10.70;37.10
22923;DHT22;11627;51.322;22.816;2022-10-16T02:15:16;10.50;38.50
22923;DHT22;11627;51.322;22.816;2022-10-16T02:20:08;10.30;38.00
22923;DHT22;11627;51.322;22.816;2022-10-16T02:22:38;10.30;28.50
22923;DHT22;11627;51.322;22.816;2022-10-16T02:25:17;10.30;30.50
22923;DHT22;11627;51.322;22.816;2022-10-16T02:30:45;10.50;37.80
22923;DHT22;11627;51.322;22.816;2022-10-16T02:33:14;10.30;28.60
22923;DHT22;11627;51.322;22.816;2022-10-16T02:35:41;10.40;41.20
22923;DHT22;11627;51.322;22.816;2022-10-16T02:38:09;10.30;29.30
22923;DHT22;11627;51.322;22.816;2022-10-16T02:40:35;10.30;29.30
22923;DHT22;11627;51.322;22.816;2022-10-16T02:43:03;10.00;40.10
22923;DHT22;11627;51.322;22.816;2022-10-16T02:45:29;10.30;41.00
22923;DHT22;11627;51.322;22.816;2022-10-16T02:47:55;10.10;35.40
22923;DHT22;11627;51.322;22.816;2022-10-16T02:50:21;10.20;38.20
22923;DHT22;11627;51.322;22.816;2022-10-16T02:55:13;10.70;41.00
22923;DHT22;11627;51.322;22.816;2022-10-16T02:57:38;10.30;41.50
22923;DHT22;11627;51.322;22.816;2022-10-16T03:00:09;10.10;42.40
22923;DHT22;11627;51.322;22.816;2022-10-16T03:02:35;10.20;42.20
22923;DHT22;11627;51.322;22.816;2022-10-16T03:05:01;10.30;41.10
22923;DHT22;11627;51.322;22.816;2022-10-16T03:07:26;10.20;41.80
22923;DHT22;11627;51.322;22.816;2022-10-16T03:12:19;10.10;40.10
22923;DHT22;11627;51.322;22.816;2022-10-16T03:14:45;10.10;38.50
22923;DHT22;11627;51.322;22.816;2022-10-16T03:22:04;9.90;41.60
22923;DHT22;11627;51.322;22.816;2022-10-16T03:31:49;10.00;38.80
22923;DHT22;11627;51.322;22.816;2022-10-16T03:34:15;10.20;39.90
22923;DHT22;11627;51.322;22.816;2022-10-16T03:36:40;10.10;41.30
22923;DHT22;11627;51.322;22.816;2022-10-16T03:46:24;10.10;43.60
22923;DHT22;11627;51.322;22.816;2022-10-16T03:48:50;10.00;43.10
22923;DHT22;11627;51.322;22.816;2022-10-16T03:51:15;10.20;45.50
22923;DHT22;11627;51.322;22.816;2022-10-16T03:53:41;10.30;47.10
22923;DHT22;11627;51.322;22.816;2022-10-16T03:56:07;9.90;47.60
22923;DHT22;11627;51.322;22.816;2022-10-16T03:58:32;10.20;45.30
22923;DHT22;11627;51.322;22.816;2022-10-16T04:13:09;10.10;39.50
22923;DHT22;11627;51.322;22.816;2022-10-16T04:18:01;10.30;47.40
22923;DHT22;11627;51.322;22.816;2022-10-16T04:20:27;10.00;49.70
22923;DHT22;11627;51.322;22.816;2022-10-16T04:25:18;9.80;49.50
22923;DHT22;11627;51.322;22.816;2022-10-16T04:27:44;10.40;50.20
22923;DHT22;11627;51.322;22.816;2022-10-16T04:30:10;10.30;49.80
22923;DHT22;11627;51.322;22.816;2022-10-16T04:32:36;10.10;52.90
22923;DHT22;11627;51.322;22.816;2022-10-16T04:35:01;10.10;46.40
22923;DHT22;11627;51.322;22.816;2022-10-16T04:37:28;10.00;53.40
22923;DHT22;11627;51.322;22.816;2022-10-16T04:39:54;10.30;52.90
22923;DHT22;11627;51.322;22.816;2022-10-16T04:42:20;10.40;46.50
22923;DHT22;11627;51.322;22.816;2022-10-16T04:44:46;10.10;51.60
22923;DHT22;11627;51.322;22.816;2022-10-16T04:49:38;10.20;45.90
22923;DHT22;11627;51.322;22.816;2022-10-16T04:52:04;10.00;48.60
22923;DHT22;11627;51.322;22.816;2022-10-16T04:56:56;10.10;50.00
22923;DHT22;11627;51.322;22.816;2022-10-16T04:59:22;9.90;49.90
22923;DHT22;11627;51.322;22.816;2022-10-16T05:01:48;10.20;51.50
22923;DHT22;11627;51.322;22.816;2022-10-16T05:06:41;10.00;38.30
22923;DHT22;11627;51.322;22.816;2022-10-16T05:11:34;9.70;51.50
22923;DHT22;11627;51.322;22.816;2022-10-16T05:14:00;9.90;53.40
22923;DHT22;11627;51.322;22.816;2022-10-16T05:18:53;10.00;53.30
22923;DHT22;11627;51.322;22.816;2022-10-16T05:21:19;10.30;54.40
22923;DHT22;11627;51.322;22.816;2022-10-16T05:23:45;10.10;55.20
22923;DHT22;11627;51.322;22.816;2022-10-16T05:26:10;9.90;50.80
22923;DHT22;11627;51.322;22.816;2022-10-16T05:28:36;10.50;56.50
22923;DHT22;11627;51.322;22.816;2022-10-16T05:31:08;10.20;55.20
22923;DHT22;11627;51.322;22.816;2022-10-16T05:33:34;10.20;56.00
22923;DHT22;11627;51.322;22.816;2022-10-16T05:36:05;10.50;56.10
22923;DHT22;11627;51.322;22.816;2022-10-16T05:38:31;10.40;46.50
22923;DHT22;11627;51.322;22.816;2022-10-16T05:43:23;10.50;55.40
22923;DHT22;11627;51.322;22.816;2022-10-16T05:46:08;10.70;54.30
22923;DHT22;11627;51.322;22.816;2022-10-16T05:51:04;10.80;55.40
22923;DHT22;11627;51.322;22.816;2022-10-16T05:53:33;10.70;50.50
22923;DHT22;11627;51.322;22.816;2022-10-16T05:55:59;10.90;55.10
22923;DHT22;11627;51.322;22.816;2022-10-16T05:58:27;10.90;55.30
22923;DHT22;11627;51.322;22.816;2022-10-16T06:01:01;10.90;55.80
22923;DHT22;11627;51.322;22.816;2022-10-16T06:03:28;10.70;55.10
22923;DHT22;11627;51.322;22.816;2022-10-16T06:05:54;11.00;54.70
22923;DHT22;11627;51.322;22.816;2022-10-16T06:08:21;11.00;44.60
22923;DHT22;11627;51.322;22.816;2022-10-16T06:10:47;10.70;55.70
22923;DHT22;11627;51.322;22.816;2022-10-16T06:13:13;10.80;54.60
22923;DHT22;11627;51.322;22.816;2022-10-16T06:15:40;11.10;43.40
22923;DHT22;11627;51.322;22.816;2022-10-16T06:18:07;11.20;55.30
22923;DHT22;11627;51.322;22.816;2022-10-16T06:20:34;11.20;55.20
22923;DHT22;11627;51.322;22.816;2022-10-16T06:23:00;11.00;55.50
22923;DHT22;11627;51.322;22.816;2022-10-16T06:25:25;11.60;55.30
22923;DHT22;11627;51.322;22.816;2022-10-16T06:30:17;11.40;56.80
22923;DHT22;11627;51.322;22.816;2022-10-16T06:35:09;11.20;59.10
22923;DHT22;11627;51.322;22.816;2022-10-16T06:37:34;11.10;58.10
22923;DHT22;11627;51.322;22.816;2022-10-16T06:52:10;11.10;58.00
22923;DHT22;11627;51.322;22.816;2022-10-16T06:54:36;11.30;59.00
22923;DHT22;11627;51.322;22.816;2022-10-16T06:57:02;11.50;51.90
22923;DHT22;11627;51.322;22.816;2022-10-16T06:59:27;11.50;59.40
22923;DHT22;11627;51.322;22.816;2022-10-16T07:01:53;11.30;60.10
22923;DHT22;11627;51.322;22.816;2022-10-16T07:04:19;11.30;60.80
22923;DHT22;11627;51.322;22.816;2022-10-16T07:06:44;11.60;60.00
22923;DHT22;11627;51.322;22.816;2022-10-16T07:09:11;11.70;64.30
22923;DHT22;11627;51.322;22.816;2022-10-16T07:11:38;11.40;64.30
22923;DHT22;11627;51.322;22.816;2022-10-16T07:14:04;11.60;63.90
22923;DHT22;11627;51.322;22.816;2022-10-16T07:16:32;11.20;63.60
22923;DHT22;11627;51.322;22.816;2022-10-16T07:18:59;11.70;64.00
22923;DHT22;11627;51.322;22.816;2022-10-16T07:21:31;11.70;64.50
22923;DHT22;11627;51.322;22.816;2022-10-16T07:24:01;12.00;64.50
22923;DHT22;11627;51.322;22.816;2022-10-16T07:26:28;11.90;59.60
22923;DHT22;11627;51.322;22.816;2022-10-16T07:28:55;11.80;65.40
22923;DHT22;11627;51.322;22.816;2022-10-16T07:31:22;11.80;65.00
22923;DHT22;11627;51.322;22.816;2022-10-16T07:33:49;11.60;64.10
22923;DHT22;11627;51.322;22.816;2022-10-16T07:36:16;12.00;62.60
22923;DHT22;11627;51.322;22.816;2022-10-16T07:38:43;12.30;63.90
22923;DHT22;11627;51.322;22.816;2022-10-16T07:41:11;12.30;60.50
22923;DHT22;11627;51.322;22.816;2022-10-16T07:43:38;12.20;64.00
22923;DHT22;11627;51.322;22.816;2022-10-16T07:46:04;12.10;54.80
22923;DHT22;11627;51.322;22.816;2022-10-16T07:48:32;12.20;61.70
22923;DHT22;11627;51.322;22.816;2022-10-16T07:51:03;12.20;60.60
22923;DHT22;11627;51.322;22.816;2022-10-16T07:53:28;12.10;54.10
22923;DHT22;11627;51.322;22.816;2022-10-16T07:56:02;12.40;49.10
22923;DHT22;11627;51.322;22.816;2022-10-16T07:58:29;12.20;55.40
22923;DHT22;11627;51.322;22.816;2022-10-16T08:00:56;12.60;55.80
22923;DHT22;11627;51.322;22.816;2022-10-16T08:03:22;12.50;57.80
22923;DHT22;11627;51.322;22.816;2022-10-16T08:05:48;12.70;57.70
22923;DHT22;11627;51.322;22.816;2022-10-16T08:08:15;12.40;56.40
22923;DHT22;11627;51.322;22.816;2022-10-16T08:13:07;12.80;55.50
22923;DHT22;11627;51.322;22.816;2022-10-16T08:15:33;12.70;48.70
22923;DHT22;11627;51.322;22.816;2022-10-16T08:18:03;12.70;52.50
22923;DHT22;11627;51.322;22.816;2022-10-16T08:20:31;12.70;44.50
22923;DHT22;11627;51.322;22.816;2022-10-16T08:25:23;12.90;40.60
22923;DHT22;11627;51.322;22.816;2022-10-16T08:27:50;12.80;52.10
22923;DHT22;11627;51.322;22.816;2022-10-16T08:30:17;12.90;50.80
22923;DHT22;11627;51.322;22.816;2022-10-16T08:32:43;13.30;48.20
22923;DHT22;11627;51.322;22.816;2022-10-16T08:35:10;13.40;44.30
22923;DHT22;11627;51.322;22.816;2022-10-16T08:37:37;13.40;34.40
22923;DHT22;11627;51.322;22.816;2022-10-16T08:40:04;13.50;39.70
22923;DHT22;11627;51.322;22.816;2022-10-16T08:51:02;13.40;37.30
22923;DHT22;11627;51.322;22.816;2022-10-16T08:53:52;13.40;39.50
22923;DHT22;11627;51.322;22.816;2022-10-16T08:58:46;14.10;9.70
22923;DHT22;11627;51.322;22.816;2022-10-16T09:01:15;14.10;6.10
22923;DHT22;11627;51.322;22.816;2022-10-16T09:06:45;14.40;16.70
22923;DHT22;11627;51.322;22.816;2022-10-16T09:22:28;14.60;1.00
22923;DHT22;11627;51.322;22.816;2022-10-16T09:25:00;14.60;1.00
22923;DHT22;11627;51.322;22.816;2022-10-16T09:32:19;14.90;1.00
22923;DHT22;11627;51.322;22.816;2022-10-16T09:34:49;15.10;1.00
22923;DHT22;11627;51.322;22.816;2022-10-16T09:37:21;15.00;1.00
22923;DHT22;11627;51.322;22.816;2022-10-16T09:39:52;15.10;1.00
22923;DHT22;11627;51.322;22.816;2022-10-16T09:42:31;15.40;1.00
22923;DHT22;11627;51.322;22.816;2022-10-16T09:47:28;15.40;1.00
22923;DHT22;11627;51.322;22.816;2022-10-16T09:49:56;15.80;1.00
22923;DHT22;11627;51.322;22.816;2022-10-16T09:52:24;15.40;1.00
22923;DHT22;11627;51.322;22.816;2022-10-16T09:54:58;15.60;1.00
22923;DHT22;11627;51.322;22.816;2022-10-16T09:57:25;16.00;1.00
22923;DHT22;11627;51.322;22.816;2022-10-16T09:59:56;15.80;1.00
22923;DHT22;11627;51.322;22.816;2022-10-16T10:02:34;15.50;1.00
22923;DHT22;11627;51.322;22.816;2022-10-16T10:05:01;15.50;1.00
22923;DHT22;11627;51.322;22.816;2022-10-16T10:07:31;16.00;1.00
22923;DHT22;11627;51.322;22.816;2022-10-16T10:10:03;15.50;1.00
22923;DHT22;11627;51.322;22.816;2022-10-16T10:12:30;15.70;1.00
22923;DHT22;11627;51.322;22.816;2022-10-16T10:15:09;15.60;1.00
22923;DHT22;11627;51.322;22.816;2022-10-16T10:17:52;15.70;1.00
22923;DHT22;11627;51.322;22.816;2022-10-16T10:20:28;15.70;1.00
22923;DHT22;11627;51.322;22.816;2022-10-16T10:22:56;15.80;1.00
22923;DHT22;11627;51.322;22.816;2022-10-16T10:25:57;15.80;1.00
22923;DHT22;11627;51.322;22.816;2022-10-16T10:31:21;15.80;1.00
22923;DHT22;11627;51.322;22.816;2022-10-16T10:36:28;16.00;1.00
22923;DHT22;11627;51.322;22.816;2022-10-16T10:38:59;16.10;1.00
22923;DHT22;11627;51.322;22.816;2022-10-16T10:46:58;15.70;1.00
22923;DHT22;11627;51.322;22.816;2022-10-16T10:49:44;15.90;1.00
22923;DHT22;11627;51.322;22.816;2022-10-16T10:55:10;15.80;1.00
22923;DHT22;11627;51.322;22.816;2022-10-16T11:00:31;15.80;1.00
22923;DHT22;11627;51.322;22.816;2022-10-16T11:05:49;16.10;1.00
22923;DHT22;11627;51.322;22.816;2022-10-16T11:08:22;16.20;1.00
22923;DHT22;11627;51.322;22.816;2022-10-16T11:10:58;15.90;1.00
22923;DHT22;11627;51.322;22.816;2022-10-16T11:16:56;16.40;1.00
22923;DHT22;11627;51.322;22.816;2022-10-16T11:19:44;16.00;1.00
22923;DHT22;11627;51.322;22.816;2022-10-16T11:22:34;16.10;1.00
22923;DHT22;11627;51.322;22.816;2022-10-16T11:27:51;16.20;1.00
22923;DHT22;11627;51.322;22.816;2022-10-16T11:30:25;15.90;1.00
22923;DHT22;11627;51.322;22.816;2022-10-16T11:35:49;16.20;1.00
22923;DHT22;11627;51.322;22.816;2022-10-16T11:40:47;16.70;1.00
22923;DHT22;11627;51.322;22.816;2022-10-16T11:43:21;16.40;1.00
22923;DHT22;11627;51.322;22.816;2022-10-16T11:45:57;16.60;1.00
22923;DHT22;11627;51.322;22.816;2022-10-16T11:48:43;16.10;1.00
22923;DHT22;11627;51.322;22.816;2022-10-16T11:51:54;16.10;1.00
22923;DHT22;11627;51.322;22.816;2022-10-16T11:56:48;16.30;1.00
22923;DHT22;11627;51.322;22.816;2022-10-16T12:05:05;16.30;1.00
22923;DHT22;11627;51.322;22.816;2022-10-16T12:10:28;16.20;1.00
22923;DHT22;11627;51.322;22.816;2022-10-16T12:15:28;15.70;1.00
22923;DHT22;11627;51.322;22.816;2022-10-16T12:17:54;15.90;1.00
22923;DHT22;11627;51.322;22.816;2022-10-16T12:20:32;16.20;1.00
22923;DHT22;11627;51.322;22.816;2022-10-16T12:23:03;16.00;1.00
22923;DHT22;11627;51.322;22.816;2022-10-16T12:25:40;16.10;1.00
22923;DHT22;11627;51.322;22.816;2022-10-16T12:30:41;16.20;1.00
22923;DHT22;11627;51.322;22.816;2022-10-16T12:33:26;16.10;1.00
22923;DHT22;11627;51.322;22.816;2022-10-16T12:35:53;16.10;1.00
22923;DHT22;11627;51.322;22.816;2022-10-16T12:41:07;16.10;1.00
22923;DHT22;11627;51.322;22.816;2022-10-16T12:43:51;16.20;1.00
22923;DHT22;11627;51.322;22.816;2022-10-16T12:48:44;16.40;1.00
22923;DHT22;11627;51.322;22.816;2022-10-16T12:54:12;16.40;1.00
22923;DHT22;11627;51.322;22.816;2022-10-16T13:02:30;16.60;1.00
22923;DHT22;11627;51.322;22.816;2022-10-16T13:30:18;16.50;1.00
22923;DHT22;11627;51.322;22.816;2022-10-16T13:35:32;16.60;1.00
22923;DHT22;11627;51.322;22.816;2022-10-16T13:38:16;16.90;1.00
22923;DHT22;11627;51.322;22.816;2022-10-16T13:43:34;16.50;1.00
22923;DHT22;11627;51.322;22.816;2022-10-16T13:46:04;16.40;1.00
22923;DHT22;11627;51.322;22.816;2022-10-16T13:48:31;16.50;1.00
22923;DHT22;11627;51.322;22.816;2022-10-16T13:51:13;16.70;1.00
22923;DHT22;11627;51.322;22.816;2022-10-16T13:53:40;16.40;1.00
22923;DHT22;11627;51.322;22.816;2022-10-16T13:56:11;16.60;1.00
22923;DHT22;11627;51.322;22.816;2022-10-16T13:58:37;16.10;1.00
22923;DHT22;11627;51.322;22.816;2022-10-16T14:01:06;16.10;1.00
22923;DHT22;11627;51.322;22.816;2022-10-16T14:03:38;16.00;1.00
22923;DHT22;11627;51.322;22.816;2022-10-16T14:06:05;16.10;1.00
22923;DHT22;11627;51.322;22.816;2022-10-16T14:08:34;16.30;1.00
22923;DHT22;11627;51.322;22.816;2022-10-16T14:11:01;16.30;1.00
22923;DHT22;11627;51.322;22.816;2022-10-16T14:13:45;16.20;1.00
22923;DHT22;11627;51.322;22.816;2022-10-16T14:16:18;15.70;1.00
22923;DHT22;11627;51.322;22.816;2022-10-16T14:18:50;16.20;1.00
22923;DHT22;11627;51.322;22.816;2022-10-16T14:21:19;16.30;1.00
22923;DHT22;11627;51.322;22.816;2022-10-16T14:23:45;16.00;1.00
22923;DHT22;11627;51.322;22.816;2022-10-16T14:28:39;16.30;1.00
22923;DHT22;11627;51.322;22.816;2022-10-16T14:31:27;16.10;1.00
22923;DHT22;11627;51.322;22.816;2022-10-16T14:33:54;16.00;1.00
22923;DHT22;11627;51.322;22.816;2022-10-16T14:36:20;16.20;1.00
22923;DHT22;11627;51.322;22.816;2022-10-16T14:39:05;16.20;1.00
22923;DHT22;11627;51.322;22.816;2022-10-16T14:41:42;16.00;1.00
22923;DHT22;11627;51.322;22.816;2022-10-16T14:44:10;16.20;1.00
22923;DHT22;11627;51.322;22.816;2022-10-16T14:46:39;16.10;1.00
22923;DHT22;11627;51.322;22.816;2022-10-16T14:49:18;16.00;1.00
22923;DHT22;11627;51.322;22.816;2022-10-16T14:51:47;16.00;1.00
22923;DHT22;11627;51.322;22.816;2022-10-16T14:54:18;15.80;1.00
22923;DHT22;11627;51.322;22.816;2022-10-16T14:56:53;15.70;1.00
22923;DHT22;11627;51.322;22.816;2022-10-16T14:59:26;16.10;1.00
22923;DHT22;11627;51.322;22.816;2022-10-16T15:01:53;15.80;1.00
22923;DHT22;11627;51.322;22.816;2022-10-16T15:04:18;15.50;1.00
22923;DHT22;11627;51.322;22.816;2022-10-16T15:06:44;15.70;1.00
22923;DHT22;11627;51.322;22.816;2022-10-16T15:09:10;15.50;3.10
22923;DHT22;11627;51.322;22.816;2022-10-16T15:11:37;15.80;3.00
22923;DHT22;11627;51.322;22.816;2022-10-16T15:14:04;15.40;5.40
22923;DHT22;11627;51.322;22.816;2022-10-16T15:16:30;15.80;7.50
22923;DHT22;11627;51.322;22.816;2022-10-16T15:18:56;15.60;8.90
22923;DHT22;11627;51.322;22.816;2022-10-16T15:26:16;15.40;12.40
22923;DHT22;11627;51.322;22.816;2022-10-16T15:28:42;15.50;13.60
22923;DHT22;11627;51.322;22.816;2022-10-16T15:31:08;15.30;14.50
22923;DHT22;11627;51.322;22.816;2022-10-16T15:33:33;15.20;15.00
22923;DHT22;11627;51.322;22.816;2022-10-16T15:36:01;15.30;15.30
22923;DHT22;11627;51.322;22.816;2022-10-16T15:38:31;15.30;11.60
22923;DHT22;11627;51.322;22.816;2022-10-16T15:40:57;15.30;17.20
22923;DHT22;11627;51.322;22.816;2022-10-16T15:43:23;15.00;18.00
22923;DHT22;11627;51.322;22.816;2022-10-16T15:46:03;15.00;18.70
22923;DHT22;11627;51.322;22.816;2022-10-16T15:48:30;14.90;19.50
22923;DHT22;11627;51.322;22.816;2022-10-16T15:55:48;14.90;22.60
22923;DHT22;11627;51.322;22.816;2022-10-16T15:58:14;15.20;24.00
22923;DHT22;11627;51.322;22.816;2022-10-16T16:00:40;14.60;26.70
22923;DHT22;11627;51.322;22.816;2022-10-16T16:03:05;14.70;28.40
22923;DHT22;11627;51.322;22.816;2022-10-16T16:07:58;14.70;29.50
22923;DHT22;11627;51.322;22.816;2022-10-16T16:12:50;14.50;30.60
22923;DHT22;11627;51.322;22.816;2022-10-16T16:15:19;14.70;30.50
22923;DHT22;11627;51.322;22.816;2022-10-16T16:20:12;14.90;29.50
22923;DHT22;11627;51.322;22.816;2022-10-16T16:22:37;15.00;29.40
22923;DHT22;11627;51.322;22.816;2022-10-16T16:25:03;14.50;29.00
22923;DHT22;11627;51.322;22.816;2022-10-16T16:32:25;14.50;22.80
22923;DHT22;11627;51.322;22.816;2022-10-16T16:34:50;14.80;29.90
22923;DHT22;11627;51.322;22.816;2022-10-16T16:37:16;14.80;29.50
22923;DHT22;11627;51.322;22.816;2022-10-16T16:39:43;14.70;28.60
22923;DHT22;11627;51.322;22.816;2022-10-16T16:42:09;14.60;27.90
22923;DHT22;11627;51.322;22.816;2022-10-16T16:44:36;14.50;27.00
22923;DHT22;11627;51.322;22.816;2022-10-16T16:47:03;14.70;18.80
22923;DHT22;11627;51.322;22.816;2022-10-16T16:49:29;14.70;25.10
22923;DHT22;11627;51.322;22.816;2022-10-16T16:54:21;14.80;22.50
22923;DHT22;11627;51.322;22.816;2022-10-16T16:56:46;14.70;23.00
22923;DHT22;11627;51.322;22.816;2022-10-16T16:59:14;14.60;15.30
22923;DHT22;11627;51.322;22.816;2022-10-16T17:01:41;14.70;23.50
22923;DHT22;11627;51.322;22.816;2022-10-16T17:04:07;14.80;24.30
22923;DHT22;11627;51.322;22.816;2022-10-16T17:06:33;14.50;23.50
22923;DHT22;11627;51.322;22.816;2022-10-16T17:09:01;14.30;24.20
22923;DHT22;11627;51.322;22.816;2022-10-16T17:11:28;14.50;21.30
22923;DHT22;11627;51.322;22.816;2022-10-16T17:13:55;14.50;24.30
22923;DHT22;11627;51.322;22.816;2022-10-16T17:16:24;14.50;15.80
22923;DHT22;11627;51.322;22.816;2022-10-16T17:18:50;14.50;23.40
22923;DHT22;11627;51.322;22.816;2022-10-16T17:21:16;14.40;23.30
22923;DHT22;11627;51.322;22.816;2022-10-16T17:23:42;14.20;23.70
22923;DHT22;11627;51.322;22.816;2022-10-16T17:26:13;14.60;22.20
22923;DHT22;11627;51.322;22.816;2022-10-16T17:31:13;14.60;23.40
22923;DHT22;11627;51.322;22.816;2022-10-16T17:33:40;14.30;22.70
22923;DHT22;11627;51.322;22.816;2022-10-16T17:36:05;14.30;21.50
22923;DHT22;11627;51.322;22.816;2022-10-16T17:38:31;14.30;21.40
22923;DHT22;11627;51.322;22.816;2022-10-16T17:40:58;14.50;13.30
22923;DHT22;11627;51.322;22.816;2022-10-16T17:45:49;14.60;16.70
22923;DHT22;11627;51.322;22.816;2022-10-16T17:50:42;14.40;11.90
22923;DHT22;11627;51.322;22.816;2022-10-16T17:53:08;14.70;16.80
22923;DHT22;11627;51.322;22.816;2022-10-16T17:55:40;14.60;17.80
22923;DHT22;11627;51.322;22.816;2022-10-16T17:58:07;14.40;16.20
22923;DHT22;11627;51.322;22.816;2022-10-16T18:03:01;14.20;13.70
22923;DHT22;11627;51.322;22.816;2022-10-16T18:05:27;14.60;13.80
22923;DHT22;11627;51.322;22.816;2022-10-16T18:07:52;14.30;11.70
22923;DHT22;11627;51.322;22.816;2022-10-16T18:10:18;14.30;10.50
22923;DHT22;11627;51.322;22.816;2022-10-16T18:12:43;14.50;9.20
22923;DHT22;11627;51.322;22.816;2022-10-16T18:15:09;14.40;8.60
22923;DHT22;11627;51.322;22.816;2022-10-16T18:17:35;14.30;5.30
22923;DHT22;11627;51.322;22.816;2022-10-16T18:20:04;14.30;6.60
22923;DHT22;11627;51.322;22.816;2022-10-16T18:22:32;14.40;1.00
22923;DHT22;11627;51.322;22.816;2022-10-16T18:27:28;14.10;1.00
22923;DHT22;11627;51.322;22.816;2022-10-16T18:29:54;14.50;4.00
22923;DHT22;11627;51.322;22.816;2022-10-16T18:32:22;14.20;1.00
22923;DHT22;11627;51.322;22.816;2022-10-16T18:37:14;14.40;1.00
22923;DHT22;11627;51.322;22.816;2022-10-16T18:39:41;14.60;1.00
22923;DHT22;11627;51.322;22.816;2022-10-16T18:42:07;14.30;1.00
22923;DHT22;11627;51.322;22.816;2022-10-16T18:49:26;14.10;1.00
22923;DHT22;11627;51.322;22.816;2022-10-16T18:51:54;14.40;1.00
22923;DHT22;11627;51.322;22.816;2022-10-16T18:54:22;14.30;1.00
22923;DHT22;11627;51.322;22.816;2022-10-16T18:56:50;14.30;1.00
22923;DHT22;11627;51.322;22.816;2022-10-16T19:04:10;14.40;1.00
22923;DHT22;11627;51.322;22.816;2022-10-16T19:06:39;14.50;1.00
22923;DHT22;11627;51.322;22.816;2022-10-16T19:09:06;14.50;1.00
22923;DHT22;11627;51.322;22.816;2022-10-16T19:11:33;14.40;1.00
22923;DHT22;11627;51.322;22.816;2022-10-16T19:16:29;14.40;1.00
22923;DHT22;11627;51.322;22.816;2022-10-16T19:18:57;14.40;1.00
22923;DHT22;11627;51.322;22.816;2022-10-16T19:21:24;14.30;1.00
22923;DHT22;11627;51.322;22.816;2022-10-16T19:23:51;14.20;1.00
22923;DHT22;11627;51.322;22.816;2022-10-16T19:26:18;14.00;1.00
22923;DHT22;11627;51.322;22.816;2022-10-16T19:31:19;14.20;1.00
22923;DHT22;11627;51.322;22.816;2022-10-16T19:33:45;14.00;1.00
22923;DHT22;11627;51.322;22.816;2022-10-16T19:36:26;14.20;1.00
22923;DHT22;11627;51.322;22.816;2022-10-16T19:38:54;14.10;1.00
22923;DHT22;11627;51.322;22.816;2022-10-16T19:41:20;14.20;1.00
22923;DHT22;11627;51.322;22.816;2022-10-16T19:46:16;14.00;1.00
22923;DHT22;11627;51.322;22.816;2022-10-16T19:48:43;14.40;1.00
22923;DHT22;11627;51.322;22.816;2022-10-16T19:51:15;14.30;1.00
22923;DHT22;11627;51.322;22.816;2022-10-16T19:53:42;14.40;1.00
22923;DHT22;11627;51.322;22.816;2022-10-16T19:56:16;14.40;1.00
22923;DHT22;11627;51.322;22.816;2022-10-16T19:58:43;14.40;1.00
22923;DHT22;11627;51.322;22.816;2022-10-16T20:01:10;14.40;1.00
22923;DHT22;11627;51.322;22.816;2022-10-16T20:03:36;14.40;1.00
22923;DHT22;11627;51.322;22.816;2022-10-16T20:06:04;14.40;1.00
22923;DHT22;11627;51.322;22.816;2022-10-16T20:08:32;14.50;1.00
22923;DHT22;11627;51.322;22.816;2022-10-16T20:10:59;14.60;1.00
22923;DHT22;11627;51.322;22.816;2022-10-16T20:13:25;14.60;1.00
22923;DHT22;11627;51.322;22.816;2022-10-16T20:15:51;14.70;1.00
22923;DHT22;11627;51.322;22.816;2022-10-16T20:18:17;14.70;1.00
22923;DHT22;11627;51.322;22.816;2022-10-16T20:20:45;14.80;1.00
22923;DHT22;11627;51.322;22.816;2022-10-16T20:23:19;14.70;1.00
22923;DHT22;11627;51.322;22.816;2022-10-16T20:25:45;14.80;1.00